X  Chiuso Dati meteorologici dell'aviazione (METAR)     LIML Milano Linate Airport
Temperatura
30°C Temperatura
20°C Punto di rugiada
55% Umidità



Vento
5 KM/H
3 MPH
1 M/S
3 KTS



Calmo
Nord
Condizioni attuali

Sereno Sereno
Pressione 1014.92 (hPa) - 29.97 (inHg)
Visibilità 6.2 (miglio) - 10 (km)
Aeroporto
Codice-Aeroporto LIML

Posizione: Milano Linate Airport
Distanza: 100 (km)

Metar:
LIML 100950Z VRB03KT CAVOK 30/20 Q1015 NOSIG

Ore: 10-08-2020 11:50 CEST